sensor_id;sensor_type;location;lat;lon;timestamp;P1;durP1;ratioP1;P2;durP2;ratioP2
46589;SDS011;32313;48.722;9.362;2023-02-11T00:00:23;73.87;;;53.13;;
46589;SDS011;32313;48.722;9.362;2023-02-11T00:02:48;70.13;;;51.63;;
46589;SDS011;32313;48.722;9.362;2023-02-11T00:05:14;60.93;;;47.83;;
46589;SDS011;32313;48.722;9.362;2023-02-11T00:07:40;60.73;;;46.80;;
46589;SDS011;32313;48.722;9.362;2023-02-11T00:10:06;66.10;;;49.37;;
46589;SDS011;32313;48.722;9.362;2023-02-11T00:12:33;64.90;;;47.33;;
46589;SDS011;32313;48.722;9.362;2023-02-11T00:14:59;70.70;;;47.50;;
46589;SDS011;32313;48.722;9.362;2023-02-11T00:17:25;61.37;;;48.80;;
46589;SDS011;32313;48.722;9.362;2023-02-11T00:19:50;59.30;;;47.77;;
46589;SDS011;32313;48.722;9.362;2023-02-11T00:22:17;67.73;;;49.60;;
46589;SDS011;32313;48.722;9.362;2023-02-11T00:24:43;67.80;;;49.17;;
46589;SDS011;32313;48.722;9.362;2023-02-11T00:27:09;55.37;;;46.30;;
46589;SDS011;32313;48.722;9.362;2023-02-11T00:29:35;72.27;;;47.97;;
46589;SDS011;32313;48.722;9.362;2023-02-11T00:32:01;55.37;;;45.33;;
46589;SDS011;32313;48.722;9.362;2023-02-11T00:34:32;65.37;;;47.33;;
46589;SDS011;32313;48.722;9.362;2023-02-11T00:37:00;59.80;;;46.13;;
46589;SDS011;32313;48.722;9.362;2023-02-11T00:39:26;65.33;;;44.80;;
46589;SDS011;32313;48.722;9.362;2023-02-11T00:41:52;63.80;;;45.50;;
46589;SDS011;32313;48.722;9.362;2023-02-11T00:44:18;57.73;;;45.90;;
46589;SDS011;32313;48.722;9.362;2023-02-11T00:46:46;64.53;;;47.23;;
46589;SDS011;32313;48.722;9.362;2023-02-11T00:49:11;68.63;;;47.57;;
46589;SDS011;32313;48.722;9.362;2023-02-11T00:51:37;60.13;;;44.07;;
46589;SDS011;32313;48.722;9.362;2023-02-11T00:54:03;61.90;;;46.70;;
46589;SDS011;32313;48.722;9.362;2023-02-11T00:56:29;66.40;;;46.67;;
46589;SDS011;32313;48.722;9.362;2023-02-11T00:58:55;56.03;;;43.80;;
46589;SDS011;32313;48.722;9.362;2023-02-11T01:01:20;63.17;;;46.83;;
46589;SDS011;32313;48.722;9.362;2023-02-11T01:03:46;55.57;;;45.30;;
46589;SDS011;32313;48.722;9.362;2023-02-11T01:06:13;65.77;;;46.97;;
46589;SDS011;32313;48.722;9.362;2023-02-11T01:08:38;62.93;;;47.17;;
46589;SDS011;32313;48.722;9.362;2023-02-11T01:11:09;57.73;;;44.57;;
46589;SDS011;32313;48.722;9.362;2023-02-11T01:13:38;61.73;;;45.37;;
46589;SDS011;32313;48.722;9.362;2023-02-11T01:16:07;68.43;;;46.77;;
46589;SDS011;32313;48.722;9.362;2023-02-11T01:18:34;58.93;;;46.10;;
46589;SDS011;32313;48.722;9.362;2023-02-11T01:21:00;64.90;;;47.27;;
46589;SDS011;32313;48.722;9.362;2023-02-11T01:23:26;66.43;;;49.30;;
46589;SDS011;32313;48.722;9.362;2023-02-11T01:25:51;63.40;;;46.73;;
46589;SDS011;32313;48.722;9.362;2023-02-11T01:28:28;57.17;;;46.13;;
46589;SDS011;32313;48.722;9.362;2023-02-11T01:30:54;58.53;;;46.93;;
46589;SDS011;32313;48.722;9.362;2023-02-11T01:33:21;62.60;;;47.20;;
46589;SDS011;32313;48.722;9.362;2023-02-11T01:35:47;62.37;;;46.73;;
46589;SDS011;32313;48.722;9.362;2023-02-11T01:38:23;63.03;;;44.63;;
46589;SDS011;32313;48.722;9.362;2023-02-11T01:40:52;60.13;;;47.43;;
46589;SDS011;32313;48.722;9.362;2023-02-11T01:43:23;59.63;;;44.50;;
46589;SDS011;32313;48.722;9.362;2023-02-11T01:48:41;57.63;;;45.13;;
46589;SDS011;32313;48.722;9.362;2023-02-11T01:51:21;63.40;;;46.17;;
46589;SDS011;32313;48.722;9.362;2023-02-11T01:53:50;62.07;;;44.80;;
46589;SDS011;32313;48.722;9.362;2023-02-11T01:56:38;51.33;;;42.70;;
46589;SDS011;32313;48.722;9.362;2023-02-11T01:59:34;53.87;;;43.97;;
46589;SDS011;32313;48.722;9.362;2023-02-11T02:02:26;59.57;;;46.93;;
46589;SDS011;32313;48.722;9.362;2023-02-11T02:05:04;55.97;;;45.10;;
46589;SDS011;32313;48.722;9.362;2023-02-11T02:07:41;60.30;;;45.07;;
46589;SDS011;32313;48.722;9.362;2023-02-11T02:10:30;68.00;;;48.90;;
46589;SDS011;32313;48.722;9.362;2023-02-11T02:12:58;56.17;;;46.60;;
46589;SDS011;32313;48.722;9.362;2023-02-11T02:15:25;57.83;;;46.63;;
46589;SDS011;32313;48.722;9.362;2023-02-11T02:18:01;58.33;;;46.13;;
46589;SDS011;32313;48.722;9.362;2023-02-11T02:29:16;54.00;;;43.23;;
46589;SDS011;32313;48.722;9.362;2023-02-11T02:34:17;59.30;;;43.03;;
46589;SDS011;32313;48.722;9.362;2023-02-11T02:36:57;63.13;;;48.10;;
46589;SDS011;32313;48.722;9.362;2023-02-11T02:39:31;65.43;;;47.70;;
46589;SDS011;32313;48.722;9.362;2023-02-11T02:41:59;58.30;;;46.43;;
46589;SDS011;32313;48.722;9.362;2023-02-11T02:44:25;62.10;;;47.17;;
46589;SDS011;32313;48.722;9.362;2023-02-11T02:46:53;61.27;;;49.33;;
46589;SDS011;32313;48.722;9.362;2023-02-11T02:49:18;61.40;;;46.63;;
46589;SDS011;32313;48.722;9.362;2023-02-11T02:51:48;60.67;;;48.23;;
46589;SDS011;32313;48.722;9.362;2023-02-11T02:54:28;65.23;;;45.67;;
46589;SDS011;32313;48.722;9.362;2023-02-11T03:00:00;65.97;;;48.43;;
46589;SDS011;32313;48.722;9.362;2023-02-11T03:08:16;63.47;;;46.47;;
46589;SDS011;32313;48.722;9.362;2023-02-11T03:10:47;58.87;;;46.53;;
46589;SDS011;32313;48.722;9.362;2023-02-11T03:13:15;69.63;;;48.63;;
46589;SDS011;32313;48.722;9.362;2023-02-11T03:15:48;64.10;;;47.40;;
46589;SDS011;32313;48.722;9.362;2023-02-11T03:18:18;58.47;;;47.27;;
46589;SDS011;32313;48.722;9.362;2023-02-11T03:20:47;69.03;;;50.20;;
46589;SDS011;32313;48.722;9.362;2023-02-11T03:23:18;63.27;;;46.30;;
46589;SDS011;32313;48.722;9.362;2023-02-11T03:26:06;55.13;;;45.80;;
46589;SDS011;32313;48.722;9.362;2023-02-11T03:31:19;60.40;;;49.03;;
46589;SDS011;32313;48.722;9.362;2023-02-11T03:36:35;60.20;;;45.80;;
46589;SDS011;32313;48.722;9.362;2023-02-11T03:39:10;60.60;;;45.10;;
46589;SDS011;32313;48.722;9.362;2023-02-11T03:41:40;60.23;;;47.17;;
46589;SDS011;32313;48.722;9.362;2023-02-11T03:44:07;69.13;;;49.57;;
46589;SDS011;32313;48.722;9.362;2023-02-11T03:46:35;52.50;;;42.33;;
46589;SDS011;32313;48.722;9.362;2023-02-11T03:49:03;58.50;;;46.97;;
46589;SDS011;32313;48.722;9.362;2023-02-11T03:51:33;61.83;;;46.20;;
46589;SDS011;32313;48.722;9.362;2023-02-11T03:54:01;52.07;;;42.00;;
46589;SDS011;32313;48.722;9.362;2023-02-11T03:56:31;59.50;;;45.43;;
46589;SDS011;32313;48.722;9.362;2023-02-11T03:59:00;57.30;;;46.07;;
46589;SDS011;32313;48.722;9.362;2023-02-11T04:01:26;57.00;;;45.27;;
46589;SDS011;32313;48.722;9.362;2023-02-11T04:03:51;54.50;;;43.13;;
46589;SDS011;32313;48.722;9.362;2023-02-11T04:06:17;59.80;;;43.97;;
46589;SDS011;32313;48.722;9.362;2023-02-11T04:08:43;54.53;;;43.43;;
46589;SDS011;32313;48.722;9.362;2023-02-11T04:11:08;49.80;;;40.00;;
46589;SDS011;32313;48.722;9.362;2023-02-11T04:13:34;50.47;;;39.60;;
46589;SDS011;32313;48.722;9.362;2023-02-11T04:15:59;50.57;;;41.23;;
46589;SDS011;32313;48.722;9.362;2023-02-11T04:18:25;48.80;;;41.73;;
46589;SDS011;32313;48.722;9.362;2023-02-11T04:20:51;51.53;;;42.50;;
46589;SDS011;32313;48.722;9.362;2023-02-11T04:23:16;57.57;;;44.63;;
46589;SDS011;32313;48.722;9.362;2023-02-11T04:25:42;50.53;;;41.03;;
46589;SDS011;32313;48.722;9.362;2023-02-11T04:28:08;49.37;;;41.70;;
46589;SDS011;32313;48.722;9.362;2023-02-11T04:30:33;52.83;;;41.80;;
46589;SDS011;32313;48.722;9.362;2023-02-11T04:32:59;49.57;;;40.77;;
46589;SDS011;32313;48.722;9.362;2023-02-11T04:35:25;51.93;;;41.80;;
46589;SDS011;32313;48.722;9.362;2023-02-11T04:37:50;54.83;;;42.87;;
46589;SDS011;32313;48.722;9.362;2023-02-11T04:40:16;54.73;;;42.07;;
46589;SDS011;32313;48.722;9.362;2023-02-11T04:42:42;53.83;;;43.20;;
46589;SDS011;32313;48.722;9.362;2023-02-11T04:45:07;54.47;;;42.70;;
46589;SDS011;32313;48.722;9.362;2023-02-11T04:47:33;53.77;;;43.30;;
46589;SDS011;32313;48.722;9.362;2023-02-11T04:50:00;47.37;;;39.73;;
46589;SDS011;32313;48.722;9.362;2023-02-11T04:52:25;54.33;;;43.37;;
46589;SDS011;32313;48.722;9.362;2023-02-11T04:54:51;55.13;;;42.13;;
46589;SDS011;32313;48.722;9.362;2023-02-11T04:57:17;54.27;;;41.13;;
46589;SDS011;32313;48.722;9.362;2023-02-11T04:59:42;47.87;;;40.40;;
46589;SDS011;32313;48.722;9.362;2023-02-11T05:02:08;46.80;;;40.63;;
46589;SDS011;32313;48.722;9.362;2023-02-11T05:04:33;48.30;;;38.13;;
46589;SDS011;32313;48.722;9.362;2023-02-11T05:06:59;48.80;;;39.60;;
46589;SDS011;32313;48.722;9.362;2023-02-11T05:09:25;50.07;;;40.87;;
46589;SDS011;32313;48.722;9.362;2023-02-11T05:11:50;49.93;;;40.47;;
46589;SDS011;32313;48.722;9.362;2023-02-11T05:14:17;51.87;;;41.40;;
46589;SDS011;32313;48.722;9.362;2023-02-11T05:16:43;54.17;;;41.67;;
46589;SDS011;32313;48.722;9.362;2023-02-11T05:19:09;50.33;;;40.20;;
46589;SDS011;32313;48.722;9.362;2023-02-11T05:21:34;49.90;;;40.10;;
46589;SDS011;32313;48.722;9.362;2023-02-11T05:24:00;47.87;;;38.53;;
46589;SDS011;32313;48.722;9.362;2023-02-11T05:26:26;51.50;;;41.40;;
46589;SDS011;32313;48.722;9.362;2023-02-11T05:28:51;50.07;;;39.17;;
46589;SDS011;32313;48.722;9.362;2023-02-11T05:31:17;47.97;;;38.37;;
46589;SDS011;32313;48.722;9.362;2023-02-11T05:33:43;59.77;;;45.37;;
46589;SDS011;32313;48.722;9.362;2023-02-11T05:36:10;53.00;;;41.07;;
46589;SDS011;32313;48.722;9.362;2023-02-11T05:38:37;51.13;;;40.50;;
46589;SDS011;32313;48.722;9.362;2023-02-11T05:41:03;49.70;;;39.97;;
46589;SDS011;32313;48.722;9.362;2023-02-11T05:43:30;49.10;;;39.87;;
46589;SDS011;32313;48.722;9.362;2023-02-11T05:45:56;54.10;;;41.93;;
46589;SDS011;32313;48.722;9.362;2023-02-11T05:48:22;62.00;;;45.50;;
46589;SDS011;32313;48.722;9.362;2023-02-11T05:50:47;47.97;;;38.53;;
46589;SDS011;32313;48.722;9.362;2023-02-11T05:53:13;47.17;;;39.03;;
46589;SDS011;32313;48.722;9.362;2023-02-11T05:55:39;50.17;;;40.90;;
46589;SDS011;32313;48.722;9.362;2023-02-11T05:58:05;47.63;;;38.77;;
46589;SDS011;32313;48.722;9.362;2023-02-11T06:00:32;49.30;;;40.90;;
46589;SDS011;32313;48.722;9.362;2023-02-11T06:02:58;53.90;;;40.33;;
46589;SDS011;32313;48.722;9.362;2023-02-11T06:05:23;51.90;;;41.80;;
46589;SDS011;32313;48.722;9.362;2023-02-11T06:07:49;45.57;;;37.33;;
46589;SDS011;32313;48.722;9.362;2023-02-11T06:10:15;48.33;;;38.23;;
46589;SDS011;32313;48.722;9.362;2023-02-11T06:12:41;46.77;;;37.53;;
46589;SDS011;32313;48.722;9.362;2023-02-11T06:15:06;46.63;;;39.67;;
46589;SDS011;32313;48.722;9.362;2023-02-11T06:17:32;47.63;;;37.80;;
46589;SDS011;32313;48.722;9.362;2023-02-11T06:20:00;47.30;;;40.17;;
46589;SDS011;32313;48.722;9.362;2023-02-11T06:22:27;49.33;;;41.10;;
46589;SDS011;32313;48.722;9.362;2023-02-11T06:24:53;53.50;;;41.20;;
46589;SDS011;32313;48.722;9.362;2023-02-11T06:27:19;49.57;;;39.53;;
46589;SDS011;32313;48.722;9.362;2023-02-11T06:29:45;48.33;;;39.90;;
46589;SDS011;32313;48.722;9.362;2023-02-11T06:32:12;47.60;;;38.60;;
46589;SDS011;32313;48.722;9.362;2023-02-11T06:34:38;48.30;;;38.73;;
46589;SDS011;32313;48.722;9.362;2023-02-11T06:37:04;48.03;;;39.67;;
46589;SDS011;32313;48.722;9.362;2023-02-11T06:39:30;47.33;;;39.30;;
46589;SDS011;32313;48.722;9.362;2023-02-11T06:41:56;47.10;;;39.80;;
46589;SDS011;32313;48.722;9.362;2023-02-11T06:44:21;46.67;;;38.97;;
46589;SDS011;32313;48.722;9.362;2023-02-11T06:46:47;47.03;;;40.77;;
46589;SDS011;32313;48.722;9.362;2023-02-11T06:49:13;50.13;;;42.53;;
46589;SDS011;32313;48.722;9.362;2023-02-11T06:51:38;46.67;;;39.10;;
46589;SDS011;32313;48.722;9.362;2023-02-11T06:54:04;49.17;;;42.10;;
46589;SDS011;32313;48.722;9.362;2023-02-11T06:56:31;49.90;;;42.23;;
46589;SDS011;32313;48.722;9.362;2023-02-11T06:58:57;49.67;;;40.47;;
46589;SDS011;32313;48.722;9.362;2023-02-11T07:01:24;51.43;;;41.63;;
46589;SDS011;32313;48.722;9.362;2023-02-11T07:03:51;52.83;;;43.73;;
46589;SDS011;32313;48.722;9.362;2023-02-11T07:06:21;48.20;;;41.33;;
46589;SDS011;32313;48.722;9.362;2023-02-11T07:08:49;47.10;;;40.87;;
46589;SDS011;32313;48.722;9.362;2023-02-11T07:11:16;49.10;;;41.13;;
46589;SDS011;32313;48.722;9.362;2023-02-11T07:13:44;55.77;;;41.47;;
46589;SDS011;32313;48.722;9.362;2023-02-11T07:16:12;49.70;;;40.20;;
46589;SDS011;32313;48.722;9.362;2023-02-11T07:18:39;48.20;;;39.53;;
46589;SDS011;32313;48.722;9.362;2023-02-11T07:21:06;48.53;;;40.43;;
46589;SDS011;32313;48.722;9.362;2023-02-11T07:23:33;48.80;;;41.77;;
46589;SDS011;32313;48.722;9.362;2023-02-11T07:26:03;48.03;;;40.00;;
46589;SDS011;32313;48.722;9.362;2023-02-11T07:28:30;49.17;;;40.67;;
46589;SDS011;32313;48.722;9.362;2023-02-11T07:30:56;53.80;;;42.23;;
46589;SDS011;32313;48.722;9.362;2023-02-11T07:33:22;50.40;;;43.27;;
46589;SDS011;32313;48.722;9.362;2023-02-11T07:35:47;49.33;;;40.40;;
46589;SDS011;32313;48.722;9.362;2023-02-11T07:38:13;56.67;;;44.83;;
46589;SDS011;32313;48.722;9.362;2023-02-11T07:40:39;47.47;;;39.90;;
46589;SDS011;32313;48.722;9.362;2023-02-11T07:43:05;49.57;;;41.23;;
46589;SDS011;32313;48.722;9.362;2023-02-11T07:45:30;48.37;;;40.23;;
46589;SDS011;32313;48.722;9.362;2023-02-11T07:47:56;47.80;;;41.23;;
46589;SDS011;32313;48.722;9.362;2023-02-11T07:50:22;47.53;;;39.60;;
46589;SDS011;32313;48.722;9.362;2023-02-11T07:52:47;49.37;;;40.97;;
46589;SDS011;32313;48.722;9.362;2023-02-11T07:55:13;50.13;;;40.03;;
46589;SDS011;32313;48.722;9.362;2023-02-11T07:57:39;46.13;;;38.23;;
46589;SDS011;32313;48.722;9.362;2023-02-11T08:00:05;45.50;;;39.07;;
46589;SDS011;32313;48.722;9.362;2023-02-11T08:02:35;52.70;;;38.87;;
46589;SDS011;32313;48.722;9.362;2023-02-11T08:05:01;47.10;;;39.07;;
46589;SDS011;32313;48.722;9.362;2023-02-11T08:07:27;48.07;;;40.53;;
46589;SDS011;32313;48.722;9.362;2023-02-11T08:09:53;48.97;;;41.63;;
46589;SDS011;32313;48.722;9.362;2023-02-11T08:12:19;46.70;;;38.20;;
46589;SDS011;32313;48.722;9.362;2023-02-11T08:14:45;46.87;;;39.67;;
46589;SDS011;32313;48.722;9.362;2023-02-11T08:17:11;45.57;;;38.27;;
46589;SDS011;32313;48.722;9.362;2023-02-11T08:19:37;49.00;;;39.07;;
46589;SDS011;32313;48.722;9.362;2023-02-11T08:22:03;47.60;;;38.47;;
46589;SDS011;32313;48.722;9.362;2023-02-11T08:24:29;42.97;;;36.57;;
46589;SDS011;32313;48.722;9.362;2023-02-11T08:26:54;47.63;;;39.63;;
46589;SDS011;32313;48.722;9.362;2023-02-11T08:29:20;47.23;;;40.50;;
46589;SDS011;32313;48.722;9.362;2023-02-11T08:31:46;45.70;;;38.80;;
46589;SDS011;32313;48.722;9.362;2023-02-11T08:34:12;49.63;;;41.93;;
46589;SDS011;32313;48.722;9.362;2023-02-11T08:36:39;45.03;;;37.37;;
46589;SDS011;32313;48.722;9.362;2023-02-11T08:39:07;46.47;;;38.97;;
46589;SDS011;32313;48.722;9.362;2023-02-11T08:41:36;46.27;;;39.43;;
46589;SDS011;32313;48.722;9.362;2023-02-11T08:44:02;46.83;;;37.50;;
46589;SDS011;32313;48.722;9.362;2023-02-11T08:46:28;46.83;;;39.73;;
46589;SDS011;32313;48.722;9.362;2023-02-11T08:48:54;43.40;;;37.63;;
46589;SDS011;32313;48.722;9.362;2023-02-11T08:51:21;42.47;;;36.97;;
46589;SDS011;32313;48.722;9.362;2023-02-11T08:53:51;40.63;;;35.90;;
46589;SDS011;32313;48.722;9.362;2023-02-11T08:56:18;44.83;;;37.10;;
46589;SDS011;32313;48.722;9.362;2023-02-11T08:58:45;43.87;;;37.80;;
46589;SDS011;32313;48.722;9.362;2023-02-11T09:01:12;40.33;;;35.60;;
46589;SDS011;32313;48.722;9.362;2023-02-11T09:03:40;43.47;;;35.47;;
46589;SDS011;32313;48.722;9.362;2023-02-11T09:06:06;42.03;;;33.77;;
46589;SDS011;32313;48.722;9.362;2023-02-11T09:08:36;41.80;;;35.50;;
46589;SDS011;32313;48.722;9.362;2023-02-11T09:11:03;41.07;;;34.30;;
46589;SDS011;32313;48.722;9.362;2023-02-11T09:13:30;38.27;;;32.27;;
46589;SDS011;32313;48.722;9.362;2023-02-11T09:15:56;36.13;;;32.27;;
46589;SDS011;32313;48.722;9.362;2023-02-11T09:18:22;37.07;;;33.03;;
46589;SDS011;32313;48.722;9.362;2023-02-11T09:20:48;38.03;;;32.70;;
46589;SDS011;32313;48.722;9.362;2023-02-11T09:23:14;35.83;;;31.47;;
46589;SDS011;32313;48.722;9.362;2023-02-11T09:25:43;40.37;;;35.97;;
46589;SDS011;32313;48.722;9.362;2023-02-11T09:28:08;40.27;;;33.37;;
46589;SDS011;32313;48.722;9.362;2023-02-11T09:30:36;41.67;;;36.00;;
46589;SDS011;32313;48.722;9.362;2023-02-11T09:33:02;37.20;;;31.87;;
46589;SDS011;32313;48.722;9.362;2023-02-11T09:35:28;35.20;;;31.40;;
46589;SDS011;32313;48.722;9.362;2023-02-11T09:37:54;38.77;;;32.63;;
46589;SDS011;32313;48.722;9.362;2023-02-11T09:40:20;37.73;;;32.83;;
46589;SDS011;32313;48.722;9.362;2023-02-11T09:42:48;36.27;;;31.40;;
46589;SDS011;32313;48.722;9.362;2023-02-11T09:45:22;36.30;;;32.37;;
46589;SDS011;32313;48.722;9.362;2023-02-11T09:47:52;34.30;;;29.80;;
46589;SDS011;32313;48.722;9.362;2023-02-11T09:50:27;37.07;;;32.93;;
46589;SDS011;32313;48.722;9.362;2023-02-11T09:55:58;38.17;;;32.47;;
46589;SDS011;32313;48.722;9.362;2023-02-11T09:58:26;35.37;;;31.47;;
46589;SDS011;32313;48.722;9.362;2023-02-11T10:06:26;33.77;;;30.17;;
46589;SDS011;32313;48.722;9.362;2023-02-11T10:09:23;28.10;;;24.93;;
46589;SDS011;32313;48.722;9.362;2023-02-11T10:12:17;30.83;;;26.27;;
46589;SDS011;32313;48.722;9.362;2023-02-11T10:22:59;29.93;;;25.90;;
46589;SDS011;32313;48.722;9.362;2023-02-11T10:26:07;30.87;;;27.30;;
46589;SDS011;32313;48.722;9.362;2023-02-11T10:28:28;29.93;;;25.87;;
46589;SDS011;32313;48.722;9.362;2023-02-11T10:30:58;28.57;;;25.47;;
46589;SDS011;32313;48.722;9.362;2023-02-11T10:36:11;27.30;;;23.53;;
46589;SDS011;32313;48.722;9.362;2023-02-11T10:38:38;26.40;;;23.60;;
46589;SDS011;32313;48.722;9.362;2023-02-11T10:41:04;25.27;;;22.77;;
46589;SDS011;32313;48.722;9.362;2023-02-11T10:43:30;26.73;;;24.00;;
46589;SDS011;32313;48.722;9.362;2023-02-11T10:45:57;28.93;;;25.53;;
46589;SDS011;32313;48.722;9.362;2023-02-11T10:48:43;27.20;;;24.33;;
46589;SDS011;32313;48.722;9.362;2023-02-11T10:51:21;24.73;;;22.10;;
46589;SDS011;32313;48.722;9.362;2023-02-11T10:53:49;25.43;;;22.83;;
46589;SDS011;32313;48.722;9.362;2023-02-11T10:56:25;24.53;;;22.00;;
46589;SDS011;32313;48.722;9.362;2023-02-11T10:59:03;24.47;;;21.97;;
46589;SDS011;32313;48.722;9.362;2023-02-11T11:01:42;24.40;;;21.90;;
46589;SDS011;32313;48.722;9.362;2023-02-11T11:06:53;25.03;;;22.43;;
46589;SDS011;32313;48.722;9.362;2023-02-11T11:09:27;25.30;;;22.40;;
46589;SDS011;32313;48.722;9.362;2023-02-11T11:11:56;23.60;;;21.10;;
46589;SDS011;32313;48.722;9.362;2023-02-11T11:14:22;26.83;;;23.93;;
46589;SDS011;32313;48.722;9.362;2023-02-11T11:16:53;26.17;;;23.43;;
46589;SDS011;32313;48.722;9.362;2023-02-11T11:19:20;24.13;;;21.73;;
46589;SDS011;32313;48.722;9.362;2023-02-11T11:21:51;23.87;;;21.37;;
46589;SDS011;32313;48.722;9.362;2023-02-11T11:24:20;24.53;;;21.30;;
46589;SDS011;32313;48.722;9.362;2023-02-11T11:26:57;22.67;;;20.47;;
46589;SDS011;32313;48.722;9.362;2023-02-11T11:29:29;23.50;;;21.07;;
46589;SDS011;32313;48.722;9.362;2023-02-11T11:32:04;24.23;;;21.73;;
46589;SDS011;32313;48.722;9.362;2023-02-11T11:34:40;22.53;;;20.23;;
46589;SDS011;32313;48.722;9.362;2023-02-11T11:37:27;23.37;;;21.03;;
46589;SDS011;32313;48.722;9.362;2023-02-11T11:42:36;23.27;;;19.37;;
46589;SDS011;32313;48.722;9.362;2023-02-11T11:47:57;20.20;;;18.10;;
46589;SDS011;32313;48.722;9.362;2023-02-11T11:50:43;21.30;;;19.00;;
46589;SDS011;32313;48.722;9.362;2023-02-11T11:55:59;19.47;;;17.23;;
46589;SDS011;32313;48.722;9.362;2023-02-11T11:58:43;19.57;;;17.40;;
46589;SDS011;32313;48.722;9.362;2023-02-11T12:06:38;20.47;;;17.40;;
46589;SDS011;32313;48.722;9.362;2023-02-11T12:09:11;17.27;;;15.47;;
46589;SDS011;32313;48.722;9.362;2023-02-11T12:11:54;17.33;;;15.53;;
46589;SDS011;32313;48.722;9.362;2023-02-11T12:17:34;18.23;;;16.33;;
46589;SDS011;32313;48.722;9.362;2023-02-11T12:33:04;16.23;;;14.33;;
46589;SDS011;32313;48.722;9.362;2023-02-11T12:43:41;15.00;;;13.40;;
46589;SDS011;32313;48.722;9.362;2023-02-11T12:52:19;16.77;;;15.07;;
46589;SDS011;32313;48.722;9.362;2023-02-11T12:54:55;20.97;;;15.40;;
46589;SDS011;32313;48.722;9.362;2023-02-11T12:57:27;17.87;;;15.80;;
46589;SDS011;32313;48.722;9.362;2023-02-11T13:05:35;17.00;;;15.20;;
46589;SDS011;32313;48.722;9.362;2023-02-11T13:08:12;17.97;;;16.07;;
46589;SDS011;32313;48.722;9.362;2023-02-11T13:10:42;15.97;;;14.40;;
46589;SDS011;32313;48.722;9.362;2023-02-11T13:13:21;13.53;;;12.13;;
46589;SDS011;32313;48.722;9.362;2023-02-11T13:15:53;15.00;;;12.27;;
46589;SDS011;32313;48.722;9.362;2023-02-11T13:26:32;13.67;;;11.43;;
46589;SDS011;32313;48.722;9.362;2023-02-11T13:32:07;12.47;;;11.20;;
46589;SDS011;32313;48.722;9.362;2023-02-11T13:40:04;10.67;;;9.40;;
46589;SDS011;32313;48.722;9.362;2023-02-11T13:42:51;12.27;;;10.20;;
46589;SDS011;32313;48.722;9.362;2023-02-11T13:48:21;9.47;;;8.40;;
46589;SDS011;32313;48.722;9.362;2023-02-11T13:50:55;11.53;;;10.40;;
46589;SDS011;32313;48.722;9.362;2023-02-11T13:53:24;10.33;;;9.23;;
46589;SDS011;32313;48.722;9.362;2023-02-11T13:55:52;11.33;;;9.30;;
46589;SDS011;32313;48.722;9.362;2023-02-11T13:58:32;11.43;;;10.30;;
46589;SDS011;32313;48.722;9.362;2023-02-11T14:01:01;9.80;;;8.80;;
46589;SDS011;32313;48.722;9.362;2023-02-11T14:03:29;11.67;;;10.47;;
46589;SDS011;32313;48.722;9.362;2023-02-11T14:06:16;10.90;;;9.80;;
46589;SDS011;32313;48.722;9.362;2023-02-11T14:11:50;11.27;;;10.07;;
46589;SDS011;32313;48.722;9.362;2023-02-11T14:14:21;13.07;;;11.43;;
46589;SDS011;32313;48.722;9.362;2023-02-11T14:19:30;10.63;;;9.53;;
46589;SDS011;32313;48.722;9.362;2023-02-11T14:22:01;13.23;;;11.83;;
46589;SDS011;32313;48.722;9.362;2023-02-11T14:35:35;13.57;;;11.80;;
46589;SDS011;32313;48.722;9.362;2023-02-11T14:40:57;16.10;;;13.57;;
46589;SDS011;32313;48.722;9.362;2023-02-11T14:43:35;13.67;;;12.13;;
46589;SDS011;32313;48.722;9.362;2023-02-11T14:46:04;13.20;;;11.80;;
46589;SDS011;32313;48.722;9.362;2023-02-11T14:48:32;13.97;;;11.40;;
46589;SDS011;32313;48.722;9.362;2023-02-11T14:51:03;15.13;;;12.73;;
46589;SDS011;32313;48.722;9.362;2023-02-11T14:53:34;14.70;;;13.07;;
46589;SDS011;32313;48.722;9.362;2023-02-11T14:56:01;13.70;;;12.10;;
46589;SDS011;32313;48.722;9.362;2023-02-11T14:58:28;14.70;;;11.97;;
46589;SDS011;32313;48.722;9.362;2023-02-11T15:00:57;15.63;;;12.30;;
46589;SDS011;32313;48.722;9.362;2023-02-11T15:03:28;18.53;;;14.50;;
46589;SDS011;32313;48.722;9.362;2023-02-11T15:08:26;17.33;;;14.70;;
46589;SDS011;32313;48.722;9.362;2023-02-11T15:10:52;17.67;;;14.47;;
46589;SDS011;32313;48.722;9.362;2023-02-11T15:13:20;20.67;;;17.10;;
46589;SDS011;32313;48.722;9.362;2023-02-11T15:15:56;19.53;;;17.07;;
46589;SDS011;32313;48.722;9.362;2023-02-11T15:18:32;18.60;;;16.47;;
46589;SDS011;32313;48.722;9.362;2023-02-11T15:21:03;18.80;;;16.50;;
46589;SDS011;32313;48.722;9.362;2023-02-11T15:23:29;22.53;;;17.90;;
46589;SDS011;32313;48.722;9.362;2023-02-11T15:25:55;19.37;;;17.27;;
46589;SDS011;32313;48.722;9.362;2023-02-11T15:28:23;20.47;;;15.60;;
46589;SDS011;32313;48.722;9.362;2023-02-11T15:31:04;20.07;;;17.27;;
46589;SDS011;32313;48.722;9.362;2023-02-11T15:33:40;19.37;;;15.87;;
46589;SDS011;32313;48.722;9.362;2023-02-11T15:36:06;18.70;;;16.30;;
46589;SDS011;32313;48.722;9.362;2023-02-11T15:38:34;19.00;;;16.97;;
46589;SDS011;32313;48.722;9.362;2023-02-11T15:41:01;18.93;;;16.87;;
46589;SDS011;32313;48.722;9.362;2023-02-11T15:43:49;21.03;;;18.70;;
46589;SDS011;32313;48.722;9.362;2023-02-11T15:46:17;20.83;;;18.63;;
46589;SDS011;32313;48.722;9.362;2023-02-11T15:48:52;20.27;;;18.03;;
46589;SDS011;32313;48.722;9.362;2023-02-11T15:51:32;21.33;;;19.10;;
46589;SDS011;32313;48.722;9.362;2023-02-11T15:54:17;19.90;;;17.90;;
46589;SDS011;32313;48.722;9.362;2023-02-11T15:56:48;21.03;;;17.10;;
46589;SDS011;32313;48.722;9.362;2023-02-11T15:59:21;19.33;;;16.83;;
46589;SDS011;32313;48.722;9.362;2023-02-11T16:04:48;20.03;;;17.93;;
46589;SDS011;32313;48.722;9.362;2023-02-11T16:13:01;20.70;;;17.63;;
46589;SDS011;32313;48.722;9.362;2023-02-11T16:17:53;18.80;;;16.87;;
46589;SDS011;32313;48.722;9.362;2023-02-11T16:20:19;20.50;;;18.23;;
46589;SDS011;32313;48.722;9.362;2023-02-11T16:22:45;20.57;;;18.57;;
46589;SDS011;32313;48.722;9.362;2023-02-11T16:25:18;21.47;;;19.10;;
46589;SDS011;32313;48.722;9.362;2023-02-11T16:27:52;20.30;;;18.17;;
46589;SDS011;32313;48.722;9.362;2023-02-11T16:32:58;20.07;;;18.10;;
46589;SDS011;32313;48.722;9.362;2023-02-11T16:35:24;24.57;;;19.33;;
46589;SDS011;32313;48.722;9.362;2023-02-11T16:37:50;20.53;;;17.70;;
46589;SDS011;32313;48.722;9.362;2023-02-11T16:40:16;22.43;;;19.30;;
46589;SDS011;32313;48.722;9.362;2023-02-11T16:42:42;25.30;;;22.70;;
46589;SDS011;32313;48.722;9.362;2023-02-11T16:45:08;24.17;;;20.60;;
46589;SDS011;32313;48.722;9.362;2023-02-11T16:47:34;23.53;;;21.03;;
46589;SDS011;32313;48.722;9.362;2023-02-11T16:50:00;24.60;;;20.60;;
46589;SDS011;32313;48.722;9.362;2023-02-11T16:52:26;22.43;;;20.07;;
46589;SDS011;32313;48.722;9.362;2023-02-11T16:54:54;23.80;;;20.83;;
46589;SDS011;32313;48.722;9.362;2023-02-11T16:57:23;23.30;;;21.00;;
46589;SDS011;32313;48.722;9.362;2023-02-11T16:59:50;23.67;;;20.17;;
46589;SDS011;32313;48.722;9.362;2023-02-11T17:02:26;22.80;;;20.47;;
46589;SDS011;32313;48.722;9.362;2023-02-11T17:04:54;22.00;;;19.70;;
46589;SDS011;32313;48.722;9.362;2023-02-11T17:07:23;21.70;;;19.43;;